Terminal Aerodrome Forecast
Issued by NWS

Home | Current Version | Previous Version | Text Only | Print | Product List | Glossary On
Versions: 1 2 3 4 5 6 7 8 9 10 11 12 13 14 15 16 17 18 19 20
000
FTUS46 KPDT 282300
TAFPSC
TAF
KPSC 282335Z 2900/2924 34005KT 6SM BR OVC012
     FM290200 30003KT 5SM BR OVC008
     FM291000 34003KT 3SM BR BKN003 OVC007
     FM291900 34005KT 6SM BR OVC012=

USA.gov is the U.S. government's official web portal to all federal, state and local government web resources and services.